createdAt,value
2022-09-23T00:01:15.249Z,101434.22
2022-09-23T00:03:49.161Z,101436.88
2022-09-23T00:06:19.715Z,101429.00
2022-09-23T00:08:49.683Z,101433.50
2022-09-23T00:11:21.554Z,101436.25
2022-09-23T00:13:52.480Z,101441.84
2022-09-23T00:16:24.234Z,101438.53
2022-09-23T00:18:51.936Z,101437.91
2022-09-23T00:21:21.366Z,101444.34
2022-09-23T00:23:49.244Z,101444.56
2022-09-23T00:26:19.118Z,101449.19
2022-09-23T00:28:47.442Z,101440.41
2022-09-23T00:31:21.658Z,101446.94
2022-09-23T00:34:07.424Z,101440.84
2022-09-23T00:36:35.842Z,101442.81
2022-09-23T00:39:04.696Z,101443.75
2022-09-23T00:41:33.272Z,101443.25
2022-09-23T00:44:02.392Z,101442.63
2022-09-23T00:46:35.576Z,101440.91
2022-09-23T00:49:17.819Z,101443.69
2022-09-23T00:51:55.278Z,101445.53
2022-09-23T00:54:25.973Z,101442.84
2022-09-23T00:56:54.612Z,101440.28
2022-09-23T00:59:24.469Z,101442.94
2022-09-23T01:01:57.299Z,101450.09
2022-09-23T01:04:28.006Z,101442.22
2022-09-23T01:06:55.548Z,101449.47
2022-09-23T01:09:25.318Z,101450.66
2022-09-23T01:12:10.222Z,101455.25
2022-09-23T01:14:52.925Z,101458.28
2022-09-23T01:17:30.010Z,101452.06
2022-09-23T01:20:08.702Z,101460.28
2022-09-23T01:23:08.126Z,101458.47
2022-09-23T01:26:00.424Z,101456.75
2022-09-23T01:28:33.828Z,101455.06
2022-09-23T01:31:17.782Z,101449.84
2022-09-23T01:33:54.319Z,101456.97
2022-09-23T01:36:39.567Z,101453.56
2022-09-23T01:39:10.739Z,101463.47
2022-09-23T01:42:09.699Z,101463.81
2022-09-23T01:44:47.284Z,101464.03
2022-09-23T01:47:30.948Z,101460.81
2022-09-23T01:50:32.823Z,101461.03
2022-09-23T01:53:06.849Z,101462.22
2022-09-23T01:55:40.397Z,101456.25
2022-09-23T01:58:14.375Z,101449.31
2022-09-23T02:00:50.238Z,101446.00
2022-09-23T02:03:26.917Z,101443.34
2022-09-23T02:06:10.358Z,101452.41
2022-09-23T02:08:44.685Z,101453.38
2022-09-23T02:11:15.395Z,101443.88
2022-09-23T02:13:48.990Z,101443.34
2022-09-23T02:16:25.608Z,101443.56
2022-09-23T02:19:19.628Z,101441.94
2022-09-23T02:21:52.506Z,101438.66
2022-09-23T02:24:26.054Z,101433.53
2022-09-23T02:26:59.254Z,101436.19
2022-09-23T02:29:44.202Z,101437.03
2022-09-23T02:32:33.414Z,101443.34
2022-09-23T02:35:33.318Z,101437.38
2022-09-23T02:38:31.356Z,101431.41
2022-09-23T02:41:15.476Z,101432.66
2022-09-23T02:43:52.005Z,101430.13
2022-09-23T02:46:20.539Z,101432.16
2022-09-23T02:48:56.909Z,101432.38
2022-09-23T02:51:25.871Z,101437.78
2022-09-23T02:53:56.379Z,101434.38
2022-09-23T02:56:24.441Z,101434.38
2022-09-23T02:58:54.470Z,101443.97
2022-09-23T03:01:56.572Z,101436.09
2022-09-23T03:04:54.948Z,101441.28
2022-09-23T03:07:50.486Z,101444.94
2022-09-23T03:10:28.700Z,101439.38
2022-09-23T03:13:29.956Z,101443.66
2022-09-23T03:15:59.706Z,101445.47
2022-09-23T03:18:48.126Z,101445.56
2022-09-23T03:21:41.681Z,101449.06
2022-09-23T03:24:10.883Z,101453.56
2022-09-23T03:26:40.918Z,101453.34
2022-09-23T03:29:11.314Z,101447.06
2022-09-23T03:31:42.481Z,101448.03
2022-09-23T03:34:24.435Z,101445.47
2022-09-23T03:37:17.796Z,101449.94
2022-09-23T03:39:53.524Z,101441.94
2022-09-23T03:42:27.613Z,101448.03
2022-09-23T03:44:57.383Z,101437.16
2022-09-23T03:47:27.201Z,101437.78
2022-09-23T03:49:56.845Z,101447.19
2022-09-23T03:52:25.610Z,101445.91
2022-09-23T03:54:53.628Z,101443.97
2022-09-23T03:57:22.372Z,101443.88
2022-09-23T03:59:54.337Z,101441.00
2022-09-23T04:02:21.989Z,101435.69
2022-09-23T04:04:49.627Z,101447.84
2022-09-23T04:07:17.832Z,101443.13
2022-09-23T04:09:45.355Z,101443.75
2022-09-23T04:12:15.107Z,101438.84
2022-09-23T04:14:43.016Z,101440.34
2022-09-23T04:17:11.412Z,101450.56
2022-09-23T04:19:39.229Z,101445.66
2022-09-23T04:22:07.783Z,101438.28
2022-09-23T04:24:35.599Z,101443.31
2022-09-23T04:27:03.551Z,101437.44
2022-09-23T04:29:31.127Z,101434.47
2022-09-23T04:31:58.776Z,101427.09
2022-09-23T04:34:26.509Z,101434.03
2022-09-23T04:36:54.093Z,101440.00
2022-09-23T04:39:21.667Z,101442.44
2022-09-23T04:41:49.255Z,101450.22
2022-09-23T04:44:17.462Z,101437.50
2022-09-23T04:46:48.217Z,101439.44
2022-09-23T04:49:16.518Z,101442.09
2022-09-23T04:51:44.020Z,101441.97
2022-09-23T04:54:12.802Z,101429.50
2022-09-23T04:56:40.952Z,101433.88
2022-09-23T04:59:08.795Z,101427.69
2022-09-23T05:01:36.898Z,101430.22
2022-09-23T05:04:07.380Z,101437.16
2022-09-23T05:06:36.112Z,101436.19
2022-09-23T05:09:06.556Z,101433.53
2022-09-23T05:11:35.032Z,101438.13
2022-09-23T05:14:03.155Z,101440.06
2022-09-23T05:16:30.934Z,101440.06
2022-09-23T05:18:59.499Z,101439.09
2022-09-23T05:21:30.295Z,101434.63
2022-09-23T05:24:01.198Z,101440.59
2022-09-23T05:26:31.388Z,101442.28
2022-09-23T05:28:59.355Z,101441.44
2022-09-23T05:31:29.050Z,101440.59
2022-09-23T05:33:59.003Z,101450.28
2022-09-23T05:36:28.460Z,101450.38
2022-09-23T05:38:56.811Z,101446.16
2022-09-23T05:41:25.900Z,101448.19
2022-09-23T05:43:55.060Z,101452.03
2022-09-23T05:46:28.571Z,101448.50
2022-09-23T05:49:02.199Z,101443.38
2022-09-23T05:51:31.923Z,101455.88
2022-09-23T05:54:03.275Z,101452.25
2022-09-23T05:56:32.084Z,101456.63
2022-09-23T05:59:01.895Z,101466.25
2022-09-23T06:01:35.423Z,101467.81
2022-09-23T06:04:05.988Z,101462.38
2022-09-23T06:06:38.657Z,101474.66
2022-09-23T06:09:08.298Z,101473.56
2022-09-23T06:11:36.585Z,101476.13
2022-09-23T06:14:04.411Z,101474.19
2022-09-23T06:16:35.073Z,101476.88
2022-09-23T06:19:06.332Z,101482.31
2022-09-23T06:21:37.162Z,101484.25
2022-09-23T06:24:05.153Z,101478.91
2022-09-23T06:26:35.139Z,101485.00
2022-09-23T06:29:04.732Z,101490.22
2022-09-23T06:31:33.126Z,101493.53
2022-09-23T06:34:12.157Z,101494.25
2022-09-23T06:36:45.772Z,101501.28
2022-09-23T06:39:14.909Z,101504.72
2022-09-23T06:41:43.784Z,101501.19
2022-09-23T06:44:15.227Z,101505.47
2022-09-23T06:46:44.084Z,101502.81
2022-09-23T06:49:12.265Z,101503.53
2022-09-23T06:51:40.351Z,101500.84
2022-09-23T06:54:08.200Z,101506.31
2022-09-23T06:56:39.050Z,101507.59
2022-09-23T06:59:09.802Z,101504.94
2022-09-23T07:01:37.997Z,101507.28
2022-09-23T07:04:07.635Z,101504.50
2022-09-23T07:06:35.868Z,101507.16
2022-09-23T07:09:05.361Z,101509.00
2022-09-23T07:11:33.166Z,101507.16
2022-09-23T07:14:00.649Z,101513.13
2022-09-23T07:16:28.452Z,101520.06
2022-09-23T07:18:56.051Z,101517.28
2022-09-23T07:21:24.308Z,101519.09
2022-09-23T07:23:52.114Z,101520.72
2022-09-23T07:26:20.657Z,101527.22
2022-09-23T07:28:48.466Z,101525.78
2022-09-23T07:31:27.109Z,101529.72
2022-09-23T07:34:03.740Z,101533.53
2022-09-23T07:36:32.882Z,101530.19
2022-09-23T07:39:02.318Z,101533.88
2022-09-23T07:41:31.753Z,101525.25
2022-09-23T07:44:00.649Z,101531.75
2022-09-23T07:46:31.185Z,101526.56
2022-09-23T07:48:59.187Z,101539.00
2022-09-23T07:51:35.497Z,101531.84
2022-09-23T07:54:07.460Z,101536.38
2022-09-23T07:56:36.076Z,101538.25
2022-09-23T07:59:05.086Z,101533.31
2022-09-23T08:01:34.006Z,101536.88
2022-09-23T08:04:10.558Z,101529.72
2022-09-23T08:06:43.227Z,101540.16
2022-09-23T08:09:11.873Z,101550.94
2022-09-23T08:11:42.153Z,101546.28
2022-09-23T08:14:12.757Z,101545.13
2022-09-23T08:16:41.661Z,101547.88
2022-09-23T08:19:09.452Z,101548.41
2022-09-23T08:21:39.163Z,101551.06
2022-09-23T08:24:12.924Z,101555.50
2022-09-23T08:26:40.522Z,101557.91
2022-09-23T08:29:10.199Z,101559.72
2022-09-23T08:31:37.686Z,101550.31
2022-09-23T08:34:05.356Z,101558.75
2022-09-23T08:36:33.056Z,101551.25
2022-09-23T08:39:00.661Z,101548.94
2022-09-23T08:41:58.187Z,101549.72
2022-09-23T08:44:37.881Z,101546.56
2022-09-23T08:47:11.381Z,101547.91
2022-09-23T08:49:44.532Z,101551.28
2022-09-23T08:52:22.671Z,101550.13
2022-09-23T08:54:55.133Z,101557.59
2022-09-23T08:58:24.571Z,101558.72
2022-09-23T09:01:05.762Z,101562.28
2022-09-23T09:03:50.618Z,101564.66
2022-09-23T09:06:52.320Z,101559.59
2022-09-23T09:09:29.815Z,101563.88
2022-09-23T09:12:05.008Z,101561.56
2022-09-23T09:14:55.429Z,101567.47
2022-09-23T09:17:45.872Z,101569.16
2022-09-23T09:20:28.744Z,101568.63
2022-09-23T09:23:00.599Z,101568.69
2022-09-23T09:25:47.006Z,101568.56
2022-09-23T09:28:24.660Z,101557.00
2022-09-23T09:30:59.726Z,101559.31
2022-09-23T09:33:47.267Z,101558.66
2022-09-23T09:36:45.148Z,101551.09
2022-09-23T09:39:14.525Z,101554.41
2022-09-23T09:41:53.888Z,101552.63
2022-09-23T09:44:29.230Z,101557.25
2022-09-23T09:47:08.757Z,101537.84
2022-09-23T09:50:02.013Z,101556.38
2022-09-23T09:52:30.004Z,101559.31
2022-09-23T09:55:12.478Z,101553.84
2022-09-23T09:57:49.769Z,101555.22
2022-09-23T10:00:19.312Z,101556.03
2022-09-23T10:02:47.498Z,101557.31
2022-09-23T10:05:32.117Z,101558.91
2022-09-23T10:08:24.872Z,101551.72
2022-09-23T10:10:59.447Z,101557.06
2022-09-23T10:13:30.176Z,101551.16
2022-09-23T10:16:00.854Z,101553.94
2022-09-23T10:18:49.307Z,101549.81
2022-09-23T10:21:27.592Z,101548.41
2022-09-23T10:23:58.689Z,101552.06
2022-09-23T10:26:32.553Z,101546.91
2022-09-23T10:29:20.185Z,101542.78
2022-09-23T10:31:47.799Z,101547.69
2022-09-23T10:34:27.494Z,101552.41
2022-09-23T10:37:03.448Z,101550.47
2022-09-23T10:39:49.212Z,101550.13
2022-09-23T10:43:01.389Z,101545.53
2022-09-23T10:45:53.112Z,101542.03
2022-09-23T10:48:44.746Z,101544.97
2022-09-23T10:51:36.368Z,101529.97
2022-09-23T10:54:21.775Z,101536.25
2022-09-23T10:57:00.380Z,101535.94
2022-09-23T10:59:59.768Z,101534.59
2022-09-23T11:02:42.570Z,101529.53
2022-09-23T11:05:15.289Z,101542.41
2022-09-23T11:08:06.808Z,101539.53
2022-09-23T11:10:48.625Z,101537.75
2022-09-23T11:13:37.316Z,101537.00
2022-09-23T11:16:31.113Z,101537.72
2022-09-23T11:19:02.194Z,101545.09
2022-09-23T11:21:35.616Z,101539.09
2022-09-23T11:24:03.291Z,101538.34
2022-09-23T11:26:55.786Z,101535.91
2022-09-23T11:29:35.565Z,101534.47
2022-09-23T11:32:18.851Z,101533.63
2022-09-23T11:35:11.184Z,101528.16
2022-09-23T11:38:05.103Z,101531.66
2022-09-23T11:40:36.451Z,101519.28
2022-09-23T11:43:23.598Z,101528.53
2022-09-23T11:46:02.041Z,101528.75
2022-09-23T11:48:50.832Z,101522.00
2022-09-23T11:51:35.022Z,101516.88
2022-09-23T11:54:12.400Z,101520.44
2022-09-23T11:56:50.384Z,101517.09
2022-09-23T11:59:40.651Z,101513.75
2022-09-23T12:02:22.916Z,101520.38
2022-09-23T12:05:22.343Z,101522.16
2022-09-23T12:08:10.159Z,101535.50
2022-09-23T12:10:55.378Z,101537.25
2022-09-23T12:13:44.299Z,101546.25
2022-09-23T12:16:30.457Z,101551.00
2022-09-23T12:19:18.914Z,101550.34
2022-09-23T12:22:12.649Z,101551.88
2022-09-23T12:24:47.970Z,101559.06
2022-09-23T12:27:24.489Z,101557.97
2022-09-23T12:29:57.207Z,101545.59
2022-09-23T12:32:25.322Z,101550.06
2022-09-23T12:34:54.506Z,101551.81
2022-09-23T12:37:43.365Z,101551.59
2022-09-23T12:40:23.027Z,101557.31
2022-09-23T12:42:51.281Z,101554.41
2022-09-23T12:45:31.457Z,101547.81
2022-09-23T12:47:59.693Z,101546.59
2022-09-23T12:50:53.383Z,101542.13
2022-09-23T12:53:33.426Z,101539.41
2022-09-23T12:56:02.793Z,101539.75
2022-09-23T12:58:42.250Z,101539.81
2022-09-23T13:01:18.605Z,101547.09
2022-09-23T13:04:09.755Z,101545.94
2022-09-23T13:06:58.793Z,101546.28
2022-09-23T13:09:30.843Z,101557.28
2022-09-23T13:12:02.077Z,101550.16
2022-09-23T13:14:32.817Z,101542.03
2022-09-23T13:17:01.214Z,101544.31
2022-09-23T13:19:28.703Z,101546.47
2022-09-23T13:22:12.415Z,101538.47
2022-09-23T13:24:43.117Z,101536.56
2022-09-23T13:27:33.193Z,101530.34
2022-09-23T13:30:14.383Z,101537.16
2022-09-23T13:32:50.127Z,101526.75
2022-09-23T13:35:30.569Z,101527.63
2022-09-23T13:37:58.267Z,101522.59
2022-09-23T13:40:29.232Z,101519.56
2022-09-23T13:43:03.289Z,101524.41
2022-09-23T13:45:32.239Z,101522.91
2022-09-23T13:48:06.269Z,101522.59
2022-09-23T13:50:38.465Z,101521.69
2022-09-23T13:53:10.645Z,101524.28
2022-09-23T13:55:40.058Z,101533.22
2022-09-23T13:58:24.079Z,101527.19
2022-09-23T14:00:52.070Z,101535.66
2022-09-23T14:03:36.215Z,101526.06
2022-09-23T14:06:09.269Z,101525.44
2022-09-23T14:08:40.635Z,101520.03
2022-09-23T14:11:08.289Z,101520.94
2022-09-23T14:13:42.141Z,101517.41
2022-09-23T14:16:15.020Z,101501.63
2022-09-23T14:18:49.895Z,101517.13
2022-09-23T14:21:27.335Z,101516.25
2022-09-23T14:23:54.921Z,101509.03
2022-09-23T14:26:24.540Z,101506.38
2022-09-23T14:28:52.938Z,101503.75
2022-09-23T14:31:20.595Z,101515.03
2022-09-23T14:33:48.167Z,101501.03
2022-09-23T14:36:37.525Z,101503.22
2022-09-23T14:39:11.157Z,101502.38
2022-09-23T14:41:42.926Z,101505.03
2022-09-23T14:44:33.333Z,101502.66
2022-09-23T14:47:01.037Z,101507.75
2022-09-23T14:49:28.715Z,101495.81
2022-09-23T14:52:02.918Z,101497.88
2022-09-23T14:54:33.667Z,101491.31
2022-09-23T14:57:03.060Z,101507.72
2022-09-23T14:59:36.263Z,101498.31
2022-09-23T15:02:31.274Z,101508.47
2022-09-23T15:05:21.588Z,101505.97
2022-09-23T15:07:55.694Z,101506.34
2022-09-23T15:10:28.247Z,101508.03
2022-09-23T15:13:08.616Z,101503.63
2022-09-23T15:15:36.677Z,101505.84
2022-09-23T15:18:08.186Z,101506.53
2022-09-23T15:20:36.179Z,101512.97
2022-09-23T15:23:03.868Z,101497.44
2022-09-23T15:25:31.394Z,101511.81
2022-09-23T15:28:16.825Z,101503.00
2022-09-23T15:30:44.666Z,101509.22
2022-09-23T15:33:15.065Z,101505.94
2022-09-23T15:35:46.843Z,101503.66
2022-09-23T15:38:14.744Z,101509.97
2022-09-23T15:40:42.316Z,101499.19
2022-09-23T15:43:20.483Z,101500.22
2022-09-23T15:45:53.570Z,101505.16
2022-09-23T15:48:24.492Z,101498.53
2022-09-23T15:50:54.407Z,101506.09
2022-09-23T15:53:31.594Z,101515.16
2022-09-23T15:55:59.145Z,101513.03
2022-09-23T15:58:27.716Z,101521.66
2022-09-23T16:00:57.242Z,101522.03
2022-09-23T16:03:28.696Z,101516.78
2022-09-23T16:06:00.251Z,101526.06
2022-09-23T16:08:28.828Z,101521.81
2022-09-23T16:10:56.470Z,101522.81
2022-09-23T16:13:24.640Z,101518.25
2022-09-23T16:15:52.186Z,101524.16
2022-09-23T16:18:20.241Z,101531.16
2022-09-23T16:20:49.541Z,101530.06
2022-09-23T16:23:37.609Z,101529.72
2022-09-23T16:26:15.397Z,101524.31
2022-09-23T16:28:43.942Z,101524.44
2022-09-23T16:31:12.019Z,101531.31
2022-09-23T16:33:39.957Z,101526.69
2022-09-23T16:36:14.689Z,101525.38
2022-09-23T16:38:42.440Z,101530.31
2022-09-23T16:41:11.372Z,101523.81
2022-09-23T16:43:42.475Z,101522.16
2022-09-23T16:46:15.625Z,101524.03
2022-09-23T16:48:48.278Z,101526.66
2022-09-23T16:51:21.177Z,101516.59
2022-09-23T16:53:50.675Z,101521.72
2022-09-23T16:56:25.663Z,101520.63
2022-09-23T16:58:55.496Z,101522.34
2022-09-23T17:01:47.209Z,101517.44
2022-09-23T17:04:16.755Z,101525.09
2022-09-23T17:06:50.313Z,101530.47
2022-09-23T17:09:24.738Z,101521.41
2022-09-23T17:12:20.485Z,101525.34
2022-09-23T17:14:48.189Z,101527.63
2022-09-23T17:17:15.693Z,101534.56
2022-09-23T17:19:43.213Z,101534.56
2022-09-23T17:22:11.525Z,101533.56
2022-09-23T17:24:39.107Z,101529.03
2022-09-23T17:27:06.631Z,101536.03
2022-09-23T17:29:34.224Z,101537.63
2022-09-23T17:32:02.064Z,101539.88
2022-09-23T17:34:29.962Z,101542.31
2022-09-23T17:36:57.452Z,101541.59
2022-09-23T17:39:24.973Z,101538.94
2022-09-23T17:41:53.007Z,101537.97
2022-09-23T17:44:20.603Z,101543.47
2022-09-23T17:46:49.282Z,101536.53
2022-09-23T17:49:18.200Z,101549.00
2022-09-23T17:51:45.736Z,101551.53
2022-09-23T17:54:15.094Z,101553.34
2022-09-23T17:56:42.771Z,101549.97
2022-09-23T17:59:12.717Z,101561.38
2022-09-23T18:01:40.362Z,101562.22
2022-09-23T18:04:08.085Z,101564.03
2022-09-23T18:06:37.203Z,101563.03
2022-09-23T18:09:07.193Z,101565.41
2022-09-23T18:11:41.030Z,101566.22
2022-09-23T18:14:14.509Z,101561.50
2022-09-23T18:16:45.672Z,101561.16
2022-09-23T18:19:16.169Z,101565.38
2022-09-23T18:21:46.032Z,101574.38
2022-09-23T18:27:01.878Z,101578.63
2022-09-23T18:29:29.689Z,101574.50
2022-09-23T18:31:58.877Z,101586.50
2022-09-23T18:34:26.583Z,101579.81
2022-09-23T18:36:56.154Z,101588.97
2022-09-23T18:39:23.767Z,101585.69
2022-09-23T18:41:51.294Z,101599.25
2022-09-23T18:44:20.012Z,101602.06
2022-09-23T18:46:47.511Z,101603.31
2022-09-23T18:49:33.249Z,101599.78
2022-09-23T18:52:01.089Z,101601.47
2022-09-23T18:54:29.157Z,101601.34
2022-09-23T18:56:57.730Z,101602.78
2022-09-23T18:59:29.606Z,101604.50
2022-09-23T19:01:57.689Z,101606.19
2022-09-23T19:04:26.763Z,101603.66
2022-09-23T19:06:56.686Z,101606.31
2022-09-23T19:09:24.749Z,101619.00
2022-09-23T19:11:52.888Z,101618.91
2022-09-23T19:14:20.707Z,101619.75
2022-09-23T19:16:51.811Z,101617.19
2022-09-23T19:19:19.524Z,101613.78
2022-09-23T19:21:47.106Z,101617.56
2022-09-23T19:24:19.844Z,101616.13
2022-09-23T19:26:48.529Z,101619.19
2022-09-23T19:29:19.687Z,101618.84
2022-09-23T19:31:48.501Z,101618.50
2022-09-23T19:34:18.186Z,101619.16
2022-09-23T19:36:47.333Z,101621.25
2022-09-23T19:39:23.393Z,101619.16
2022-09-23T19:41:52.632Z,101624.78
2022-09-23T19:44:20.346Z,101620.41
2022-09-23T19:46:55.032Z,101621.41
2022-09-23T19:49:25.446Z,101619.22
2022-09-23T19:51:56.039Z,101628.34
2022-09-23T19:54:26.618Z,101632.72
2022-09-23T19:56:54.217Z,101633.72
2022-09-23T19:59:21.720Z,101629.56
2022-09-23T20:01:49.634Z,101634.19
2022-09-23T20:04:17.455Z,101629.31
2022-09-23T20:06:46.161Z,101632.13
2022-09-23T20:09:13.926Z,101634.91
2022-09-23T20:11:44.218Z,101636.88
2022-09-23T20:14:13.071Z,101641.66
2022-09-23T20:16:40.668Z,101637.63
2022-09-23T20:19:09.908Z,101638.97
2022-09-23T20:21:38.085Z,101644.81
2022-09-23T20:24:07.061Z,101636.41
2022-09-23T20:26:53.236Z,101639.69
2022-09-23T20:29:20.813Z,101632.38
2022-09-23T20:31:48.341Z,101635.91
2022-09-23T20:34:16.255Z,101641.63
2022-09-23T20:36:44.279Z,101649.16
2022-09-23T20:39:11.756Z,101650.38
2022-09-23T20:41:39.514Z,101650.97
2022-09-23T20:44:12.445Z,101648.75
2022-09-23T20:46:47.816Z,101651.78
2022-09-23T20:49:17.248Z,101651.19
2022-09-23T20:51:45.186Z,101658.69
2022-09-23T20:54:12.708Z,101661.72
2022-09-23T20:56:40.264Z,101653.81
2022-09-23T20:59:09.486Z,101659.53
2022-09-23T21:01:37.173Z,101667.25
2022-09-23T21:04:06.059Z,101667.63
2022-09-23T21:06:35.474Z,101659.81
2022-09-23T21:09:04.160Z,101660.16
2022-09-23T21:11:32.232Z,101661.22
2022-09-23T21:14:01.264Z,101665.19
2022-09-23T21:16:29.596Z,101666.50
2022-09-23T21:18:58.038Z,101667.47
2022-09-23T21:21:26.054Z,101661.38
2022-09-23T21:23:53.542Z,101663.34
2022-09-23T21:26:23.616Z,101667.31
2022-09-23T21:28:54.102Z,101662.09
2022-09-23T21:31:25.597Z,101662.31
2022-09-23T21:33:59.182Z,101661.69
2022-09-23T21:36:28.474Z,101663.69
2022-09-23T21:38:56.245Z,101667.47
2022-09-23T21:41:23.991Z,101671.09
2022-09-23T21:43:51.520Z,101667.69
2022-09-23T21:46:20.796Z,101670.47
2022-09-23T21:48:53.597Z,101674.22
2022-09-23T21:51:26.697Z,101676.25
2022-09-23T21:53:56.937Z,101677.44
2022-09-23T21:56:29.695Z,101676.81
2022-09-23T21:58:59.906Z,101676.53
2022-09-23T22:01:30.941Z,101679.50
2022-09-23T22:04:08.603Z,101681.69
2022-09-23T22:06:38.356Z,101675.78
2022-09-23T22:09:09.091Z,101675.88
2022-09-23T22:11:55.834Z,101677.63
2022-09-23T22:14:26.062Z,101676.88
2022-09-23T22:16:59.209Z,101680.72
2022-09-23T22:19:35.173Z,101665.66
2022-09-23T22:22:13.537Z,101669.50
2022-09-23T22:24:42.418Z,101674.31
2022-09-23T22:27:11.681Z,101675.59
2022-09-23T22:29:58.194Z,101679.56
2022-09-23T22:32:40.859Z,101676.38
2022-09-23T22:35:14.107Z,101677.50
2022-09-23T22:37:41.706Z,101671.66
2022-09-23T22:40:14.302Z,101674.53
2022-09-23T22:42:42.926Z,101672.19
2022-09-23T22:45:11.516Z,101666.19
2022-09-23T22:47:40.760Z,101670.69
2022-09-23T22:50:09.400Z,101668.97
2022-09-23T22:52:37.971Z,101676.03
2022-09-23T22:55:08.178Z,101677.75
2022-09-23T22:57:36.777Z,101677.09
2022-09-23T23:00:08.545Z,101672.19
2022-09-23T23:02:36.865Z,101678.88
2022-09-23T23:05:04.629Z,101673.75
2022-09-23T23:07:32.246Z,101688.06
2022-09-23T23:09:59.720Z,101679.31
2022-09-23T23:12:27.278Z,101687.59
2022-09-23T23:14:55.623Z,101689.63
2022-09-23T23:17:23.196Z,101688.84
2022-09-23T23:19:50.928Z,101690.78
2022-09-23T23:22:18.518Z,101687.34
2022-09-23T23:24:46.011Z,101678.81
2022-09-23T23:27:13.505Z,101678.16
2022-09-23T23:29:41.014Z,101673.78
2022-09-23T23:32:09.847Z,101674.09
2022-09-23T23:34:37.936Z,101679.72
2022-09-23T23:37:05.762Z,101683.69
2022-09-23T23:39:33.873Z,101683.97
2022-09-23T23:42:01.497Z,101687.78
2022-09-23T23:44:31.190Z,101683.63
2022-09-23T23:46:58.873Z,101690.75
2022-09-23T23:49:26.402Z,101690.22
2022-09-23T23:51:53.962Z,101689.56
2022-09-23T23:54:21.550Z,101689.84
2022-09-23T23:56:49.241Z,101699.00
2022-09-23T23:59:18.463Z,101700.94
